Time;durP1;ratioP1;P1;durP2;ratioP2;P2;SDS_P1;SDS_P2;PMS_P1;PMS_P2;Temp;Humidity;BMP_temperature;BMP_pressure;BME280_temperature;BME280_humidity;BME280_pressure;Samples;Min_cycle;Max_cycle;Signal;HPM_P1;HPM_P2
2021/03/20 00:01:15;;;;;;;26.63;6.78;;;31.90;15.10;;;;;;5031525;28;20097;-68
2021/03/20 00:03:42;;;;;;;26.38;6.60;;;31.80;14.80;;;;;;5030845;28;21366;-68
2021/03/20 00:06:11;;;;;;;30.10;7.47;;;31.70;14.90;;;;;;5026427;28;20510;-66
2021/03/20 00:08:38;;;;;;;24.80;7.35;;;31.70;14.80;;;;;;5030006;28;20465;-69
2021/03/20 00:11:06;;;;;;;26.10;6.97;;;31.60;14.70;;;;;;5030260;28;20078;-68
2021/03/20 00:13:32;;;;;;;24.05;6.10;;;31.50;15.10;;;;;;5031875;28;20082;-68
2021/03/20 00:15:59;;;;;;;21.80;6.20;;;31.40;15.00;;;;;;5031040;28;20538;-68
2021/03/20 00:18:27;;;;;;;29.13;6.60;;;31.30;15.40;;;;;;5032486;28;20085;-64
2021/03/20 00:20:55;;;;;;;22.20;6.03;;;31.30;15.50;;;;;;5031661;28;20554;-63
2021/03/20 00:23:23;;;;;;;24.52;6.03;;;31.20;15.50;;;;;;5029391;28;20137;-64
2021/03/20 00:25:50;;;;;;;20.95;5.88;;;31.10;15.40;;;;;;5030521;28;20136;-63
2021/03/20 00:28:23;;;;;;;14.75;5.32;;;31.10;15.40;;;;;;5030685;28;20547;-61
2021/03/20 00:31:03;;;;;;;21.73;6.32;;;31.00;16.10;;;;;;5031443;28;20539;-60
2021/03/20 00:33:30;;;;;;;18.45;5.75;;;31.00;15.90;;;;;;5029921;28;20478;-65
2021/03/20 00:35:58;;;;;;;20.00;5.55;;;30.90;15.70;;;;;;5030915;28;20089;-65
2021/03/20 00:38:26;;;;;;;16.00;5.13;;;30.90;16.20;;;;;;5028599;28;20102;-68
2021/03/20 00:40:55;;;;;;;24.55;5.38;;;30.90;15.50;;;;;;5029733;28;20502;-64
2021/03/20 00:43:22;;;;;;;22.88;5.93;;;30.80;15.90;;;;;;5030845;28;20085;-65
2021/03/20 00:45:49;;;;;;;18.95;6.05;;;30.70;15.90;;;;;;5032078;28;20113;-66
2021/03/20 00:48:23;;;;;;;21.42;5.78;;;30.70;16.10;;;;;;5030930;28;20078;-65
2021/03/20 00:50:51;;;;;;;30.30;6.63;;;30.70;15.70;;;;;;5027065;28;20522;-66
2021/03/20 00:53:20;;;;;;;21.58;5.53;;;30.60;16.40;;;;;;5031207;28;20102;-66
2021/03/20 00:55:50;;;;;;;20.75;5.95;;;30.50;16.40;;;;;;5033587;28;20458;-70
2021/03/20 00:58:27;;;;;;;15.63;4.85;;;30.50;16.40;;;;;;5030750;28;20077;-64
2021/03/20 01:00:54;;;;;;;;;;;30.40;15.60;;;;;;5028312;28;20449;-68
2021/03/20 01:03:22;;;;;;;32.05;5.95;;;30.20;15.90;;;;;;5029329;28;19961;-66
2021/03/20 01:05:48;;;;;;;27.65;5.20;;;30.10;16.20;;;;;;5033831;28;20121;-66
2021/03/20 01:08:16;;;;;;;14.88;5.38;;;30.00;16.40;;;;;;5031219;28;20098;-63
2021/03/20 01:10:43;;;;;;;25.30;7.20;;;30.00;16.50;;;;;;5031772;28;20070;-63
2021/03/20 01:13:10;;;;;;;27.55;5.90;;;29.90;17.10;;;;;;5031137;28;20102;-64
2021/03/20 01:15:37;;;;;;;15.35;4.72;;;30.00;17.00;;;;;;5031666;28;20070;-62
2021/03/20 01:18:04;;;;;;;20.52;3.72;;;30.30;16.90;;;;;;5030792;28;20098;-62
2021/03/20 01:20:31;;;;;;;16.35;3.80;;;30.40;16.70;;;;;;5031727;28;20167;-64
2021/03/20 01:22:58;;;;;;;18.92;3.97;;;30.30;16.90;;;;;;5029398;28;20066;-65
2021/03/20 01:25:24;;;;;;;22.52;4.30;;;30.00;17.50;;;;;;5029584;28;20094;-64
2021/03/20 01:27:53;;;;;;;14.50;3.50;;;29.70;17.80;;;;;;5031199;28;20192;-62
2021/03/20 01:30:31;;;;;;;22.20;3.72;;;29.50;18.20;;;;;;5029141;28;20527;-64
2021/03/20 01:32:57;;;;;;;26.52;4.35;;;29.40;18.60;;;;;;5030224;28;20113;-63
2021/03/20 01:35:24;;;;;;;33.00;5.10;;;29.10;18.90;;;;;;5029504;28;20151;-63
2021/03/20 01:37:51;;;;;;;32.60;4.70;;;29.00;19.00;;;;;;5030800;28;20522;-63
2021/03/20 01:40:57;;;;;;;45.08;5.10;;;28.80;19.30;;;;;;5029584;28;20156;-62
2021/03/20 01:43:25;;;;;;;37.90;4.38;;;28.60;19.70;;;;;;5030692;28;20069;-63
2021/03/20 01:45:53;;;;;;;27.95;5.20;;;28.50;20.00;;;;;;5029350;28;20090;-62
2021/03/20 01:48:27;;;;;;;28.67;4.95;;;28.30;20.10;;;;;;5029675;28;20070;-63
2021/03/20 01:51:02;;;;;;;24.48;4.13;;;28.20;20.00;;;;;;5029255;28;20092;-63
2021/03/20 01:53:43;;;;;;;33.47;4.93;;;28.00;20.20;;;;;;5029085;28;20078;-62
2021/03/20 01:56:19;;;;;;;38.63;4.65;;;27.90;20.40;;;;;;5030497;28;20072;-64
2021/03/20 01:58:47;;;;;;;25.40;4.17;;;27.80;20.70;;;;;;5029234;28;20092;-62
2021/03/20 02:01:28;;;;;;;39.35;4.80;;;27.70;21.10;;;;;;5030740;28;21735;-63
2021/03/20 02:03:56;;;;;;;39.65;4.75;;;27.60;21.40;;;;;;5029352;28;20136;-65
2021/03/20 02:06:24;;;;;;;35.25;5.25;;;27.40;22.00;;;;;;5029135;28;20120;-65
2021/03/20 02:08:52;;;;;;;50.60;6.20;;;27.20;21.90;;;;;;5028975;28;20074;-62
2021/03/20 02:11:32;;;;;;;61.95;7.35;;;27.10;22.00;;;;;;5029539;28;20105;-65
2021/03/20 02:14:35;;;;;;;54.97;8.52;;;27.00;22.40;;;;;;5029266;28;20090;-64
2021/03/20 02:17:08;;;;;;;73.47;7.95;;;26.90;22.20;;;;;;5028056;28;20612;-63
2021/03/20 02:19:58;;;;;;;104.30;10.23;;;26.80;22.20;;;;;;5026043;28;20090;-62
2021/03/20 02:23:10;;;;;;;99.95;9.38;;;26.70;23.20;;;;;;5028916;28;20546;-65
2021/03/20 02:25:43;;;;;;;125.97;10.98;;;26.60;22.70;;;;;;5029760;28;20084;-62
2021/03/20 02:28:46;;;;;;;107.53;9.98;;;26.50;22.90;;;;;;5029262;28;20127;-65
2021/03/20 02:31:31;;;;;;;114.82;10.85;;;26.40;23.20;;;;;;5030214;28;20244;-64
2021/03/20 02:34:16;;;;;;;123.28;10.98;;;26.30;23.80;;;;;;5029435;28;20089;-64
2021/03/20 02:37:01;;;;;;;138.18;12.20;;;26.20;23.60;;;;;;5025495;28;20078;-61
2021/03/20 02:40:06;;;;;;;100.28;11.90;;;26.00;24.10;;;;;;5026773;28;20098;-65
2021/03/20 02:42:44;;;;;;;97.43;10.65;;;25.90;23.60;;;;;;5024226;28;20573;-64
2021/03/20 02:45:42;;;;;;;83.78;12.20;;;25.80;23.60;;;;;;5026557;28;20101;-62
2021/03/20 02:48:27;;;;;;;86.68;14.07;;;25.70;23.60;;;;;;5041442;28;20173;-63
2021/03/20 02:51:02;;;;;;;74.47;11.32;;;25.60;24.40;;;;;;5026103;28;20074;-64
2021/03/20 02:53:48;;;;;;;55.47;8.63;;;25.60;24.70;;;;;;5026120;28;20169;-71
2021/03/20 02:56:22;;;;;;;67.55;8.60;;;25.60;24.60;;;;;;5027778;28;20069;-64
2021/03/20 02:59:08;;;;;;;70.18;9.82;;;25.60;24.60;;;;;;5031970;28;20161;-67
2021/03/20 03:01:38;;;;;;;57.45;9.80;;;25.60;24.50;;;;;;5033036;28;20469;-67
2021/03/20 03:04:07;;;;;;;55.45;11.88;;;25.60;24.60;;;;;;5032769;28;20085;-66
2021/03/20 03:06:44;;;;;;;66.03;9.27;;;25.50;24.60;;;;;;5032439;28;20102;-65
2021/03/20 03:09:37;;;;;;;55.30;8.85;;;25.40;24.40;;;;;;5032206;28;20604;-66
2021/03/20 03:12:21;;;;;;;174.35;17.38;;;25.40;24.60;;;;;;5028962;28;20078;-66
2021/03/20 03:14:57;;;;;;;138.95;25.38;;;25.20;24.90;;;;;;5028929;28;20078;-65
2021/03/20 03:17:27;;;;;;;137.93;29.40;;;25.20;25.40;;;;;;5029708;28;20081;-65
2021/03/20 03:20:06;;;;;;;263.55;32.10;;;25.10;25.60;;;;;;5032840;28;20086;-66
2021/03/20 03:22:43;;;;;;;155.43;24.15;;;25.00;26.30;;;;;;5032074;28;20079;-62
2021/03/20 03:25:13;;;;;;;185.48;25.17;;;24.90;26.30;;;;;;5031744;28;20113;-65
2021/03/20 03:27:45;;;;;;;103.22;25.17;;;24.90;25.90;;;;;;5032662;28;20080;-65
2021/03/20 03:30:14;;;;;;;105.65;20.23;;;24.90;25.90;;;;;;5029470;28;20074;-64
2021/03/20 03:32:48;;;;;;;97.43;16.65;;;24.80;26.00;;;;;;5028282;28;20429;-65
2021/03/20 03:35:28;;;;;;;46.08;11.10;;;24.90;25.90;;;;;;5025882;28;20120;-64
2021/03/20 03:38:13;;;;;;;76.97;11.65;;;24.90;26.20;;;;;;5030881;28;20078;-65
2021/03/20 03:40:46;;;;;;;82.53;11.52;;;24.90;27.00;;;;;;5028683;28;20097;-64
2021/03/20 03:43:12;;;;;;;128.63;13.90;;;24.80;27.10;;;;;;5044668;28;20153;-65
2021/03/20 03:45:41;;;;;;;99.60;10.52;;;24.70;27.10;;;;;;5043570;28;20551;-71
2021/03/20 03:48:08;;;;;;;45.10;12.52;;;24.70;27.60;;;;;;5039081;28;20128;-65
2021/03/20 03:50:38;;;;;;;32.95;11.00;;;24.70;28.70;;;;;;5028837;28;20120;-66
2021/03/20 03:53:06;;;;;;;38.85;9.48;;;24.70;28.90;;;;;;5027500;28;20070;-65
2021/03/20 03:55:33;;;;;;;24.92;9.07;;;24.70;29.30;;;;;;5042122;28;20534;-65
2021/03/20 03:58:24;;;;;;;22.25;7.13;;;24.70;29.70;;;;;;5029125;28;20086;-64
2021/03/20 04:00:54;;;;;;;46.58;11.00;;;24.70;29.60;;;;;;5027997;28;20097;-64
2021/03/20 04:03:47;;;;;;;34.17;7.28;;;24.70;29.90;;;;;;5028385;28;20078;-65
2021/03/20 04:06:35;;;;;;;22.48;8.10;;;24.70;30.00;;;;;;5019399;28;20424;-65
2021/03/20 04:09:04;;;;;;;33.03;11.10;;;24.70;30.00;;;;;;5026802;28;20078;-65
2021/03/20 04:11:43;;;;;;;18.98;4.22;;;24.60;30.50;;;;;;5028797;28;20073;-66
2021/03/20 04:14:22;;;;;;;13.43;2.60;;;24.50;31.00;;;;;;5028265;28;20109;-65
2021/03/20 04:17:04;;;;;;;9.27;3.50;;;24.60;30.90;;;;;;5026608;28;20078;-66
2021/03/20 04:20:12;;;;;;;15.90;3.58;;;24.60;31.30;;;;;;5029813;28;20094;-65
2021/03/20 04:22:44;;;;;;;20.48;6.78;;;24.60;31.30;;;;;;5010379;28;20082;-65
2021/03/20 04:25:39;;;;;;;11.98;3.20;;;24.50;31.40;;;;;;5024772;28;20101;-65
2021/03/20 04:28:22;;;;;;;15.40;3.08;;;24.50;31.60;;;;;;5018998;28;20080;-66
2021/03/20 04:31:00;;;;;;;17.58;1.95;;;24.50;32.00;;;;;;5027467;28;20089;-63
2021/03/20 04:33:40;;;;;;;18.25;3.00;;;24.50;32.40;;;;;;5022336;28;20098;-64
2021/03/20 04:36:17;;;;;;;19.58;1.98;;;24.50;32.70;;;;;;5029314;28;20067;-67
2021/03/20 04:38:49;;;;;;;43.03;3.90;;;24.50;32.90;;;;;;5043426;28;20085;-67
2021/03/20 04:41:17;;;;;;;10.10;2.38;;;24.50;33.20;;;;;;5027326;28;20465;-67
2021/03/20 04:43:44;;;;;;;25.50;2.80;;;24.40;33.30;;;;;;5025856;28;20074;-67
2021/03/20 04:46:24;;;;;;;24.15;2.30;;;24.40;33.70;;;;;;5027013;28;20074;-65
2021/03/20 04:49:07;;;;;;;8.90;1.67;;;24.40;34.10;;;;;;5029372;28;20062;-62
2021/03/20 04:51:41;;;;;;;7.63;1.52;;;24.30;34.20;;;;;;5027043;28;20578;-66
2021/03/20 04:54:18;;;;;;;288.50;15.23;;;24.30;34.40;;;;;;5029754;28;20093;-68
2021/03/20 04:57:00;;;;;;;14.05;2.15;;;24.30;34.50;;;;;;5026606;28;20232;-65
2021/03/20 04:59:59;;;;;;;11.60;2.30;;;24.20;34.70;;;;;;5029066;28;20105;-64
2021/03/20 05:02:32;;;;;;;11.00;2.10;;;24.10;34.80;;;;;;5027748;28;20086;-65
2021/03/20 05:05:22;;;;;;;24.20;2.70;;;24.10;34.90;;;;;;5027243;28;20160;-65
2021/03/20 05:07:50;;;;;;;15.02;1.90;;;24.00;35.10;;;;;;5024615;28;20070;-65
2021/03/20 05:10:43;;;;;;;9.48;1.83;;;23.90;35.00;;;;;;5026204;28;20458;-64
2021/03/20 05:13:38;;;;;;;7.65;1.40;;;24.00;34.90;;;;;;5029396;28;20074;-66
2021/03/20 05:16:27;;;;;;;12.27;2.03;;;23.90;34.90;;;;;;5027058;28;20074;-65
2021/03/20 05:18:54;;;;;;;28.65;2.50;;;23.90;34.90;;;;;;5024360;28;20171;-65
2021/03/20 05:21:27;;;;;;;111.70;7.57;;;23.90;35.00;;;;;;5029360;28;20102;-66
2021/03/20 05:23:55;;;;;;;5.43;1.85;;;23.90;34.90;;;;;;5045117;28;20105;-67
2021/03/20 05:26:22;;;;;;;12.82;1.67;;;23.90;34.90;;;;;;5030304;28;20140;-69
2021/03/20 05:28:49;;;;;;;8.13;1.85;;;23.80;35.00;;;;;;5029323;28;20176;-69
2021/03/20 05:31:16;;;;;;;9.73;1.80;;;23.80;35.00;;;;;;5031336;28;20073;-67
2021/03/20 05:33:46;;;;;;;8.95;1.85;;;23.80;35.20;;;;;;5030367;28;20078;-68
2021/03/20 05:36:12;;;;;;;14.15;1.85;;;23.80;35.30;;;;;;5030602;28;20074;-65
2021/03/20 05:38:39;;;;;;;15.43;1.40;;;23.80;35.50;;;;;;5031045;28;20077;-67
2021/03/20 05:41:32;;;;;;;11.95;1.60;;;23.70;35.50;;;;;;5029571;28;20431;-67
2021/03/20 05:44:17;;;;;;;16.08;1.90;;;23.70;35.70;;;;;;5026499;28;20173;-66
2021/03/20 05:46:53;;;;;;;16.15;1.75;;;23.70;35.90;;;;;;5030758;28;20527;-67
2021/03/20 05:49:44;;;;;;;11.45;2.08;;;23.70;35.80;;;;;;5029927;28;20089;-66
2021/03/20 05:52:18;;;;;;;11.70;1.98;;;23.70;36.10;;;;;;5029020;28;20166;-65
2021/03/20 05:55:01;;;;;;;10.73;1.60;;;23.60;36.10;;;;;;5030184;28;20482;-66
2021/03/20 05:57:34;;;;;;;7.47;1.67;;;23.60;36.40;;;;;;5027881;28;20070;-67
2021/03/20 06:00:03;;;;;;;20.42;1.90;;;23.50;36.50;;;;;;5031140;28;20191;-66
2021/03/20 06:02:48;;;;;;;12.95;2.22;;;23.50;36.50;;;;;;5031047;28;20161;-65
2021/03/20 06:05:46;;;;;;;13.70;2.13;;;23.50;36.50;;;;;;5030014;28;20077;-67
2021/03/20 06:08:36;;;;;;;7.03;1.50;;;23.50;36.70;;;;;;5044694;28;20549;-64
2021/03/20 06:11:27;;;;;;;14.15;1.55;;;23.40;36.50;;;;;;5028984;28;20419;-66
2021/03/20 06:14:22;;;;;;;5.97;1.40;;;23.50;36.30;;;;;;5030215;28;20074;-66
2021/03/20 06:17:09;;;;;;;13.35;2.20;;;23.40;36.40;;;;;;5030262;28;20066;-55
2021/03/20 06:20:18;;;;;;;5.43;1.80;;;23.30;36.60;;;;;;5030239;28;20093;-53
2021/03/20 06:23:23;;;;;;;9.93;1.88;;;23.30;36.60;;;;;;5029611;28;20070;-55
2021/03/20 06:26:14;;;;;;;14.52;1.70;;;23.20;36.90;;;;;;5029639;28;20508;-54
2021/03/20 06:28:43;;;;;;;6.40;1.58;;;23.20;36.60;;;;;;5029976;28;20077;-54
2021/03/20 06:31:51;;;;;;;14.38;1.70;;;23.20;36.60;;;;;;5029545;28;20588;-53
2021/03/20 06:34:28;;;;;;;6.57;1.63;;;23.20;36.90;;;;;;5012714;28;20086;-55
2021/03/20 06:37:09;;;;;;;8.90;2.10;;;23.10;36.70;;;;;;5029395;28;20076;-57
2021/03/20 06:39:42;;;;;;;9.15;2.00;;;23.10;37.30;;;;;;5029637;28;20554;-57
2021/03/20 06:42:29;;;;;;;12.23;1.90;;;23.10;37.60;;;;;;5029870;28;20533;-56
2021/03/20 06:45:03;;;;;;;8.32;1.90;;;23.00;37.70;;;;;;5030140;28;20078;-52
2021/03/20 06:47:34;;;;;;;10.20;1.10;;;23.00;37.80;;;;;;5030320;28;20097;-55
2021/03/20 06:50:18;;;;;;;8.02;1.60;;;22.90;38.00;;;;;;5030525;28;20082;-52
2021/03/20 06:52:51;;;;;;;4.35;1.30;;;22.90;38.10;;;;;;5029521;28;20078;-54
2021/03/20 06:55:49;;;;;;;9.88;1.25;;;22.80;38.10;;;;;;5033177;28;20073;-55
2021/03/20 06:58:31;;;;;;;5.60;1.00;;;22.90;38.30;;;;;;5029774;28;20077;-55
2021/03/20 07:01:01;;;;;;;7.25;0.80;;;22.80;38.40;;;;;;5029353;28;20097;-56
2021/03/20 07:04:01;;;;;;;5.28;1.00;;;22.70;38.70;;;;;;5029385;28;20527;-54
2021/03/20 07:07:02;;;;;;;2.97;1.05;;;22.60;39.00;;;;;;5028975;28;20090;-55
2021/03/20 07:09:30;;;;;;;7.28;1.15;;;22.60;39.20;;;;;;5028158;28;20082;-55
2021/03/20 07:12:12;;;;;;;2.47;0.73;;;22.40;39.30;;;;;;5029257;28;20562;-56
2021/03/20 07:14:42;;;;;;;2.42;1.20;;;22.40;39.50;;;;;;5027925;28;20208;-58
2021/03/20 07:17:25;;;;;;;3.25;0.80;;;22.30;39.20;;;;;;5044496;28;20074;-57
2021/03/20 07:19:55;;;;;;;3.65;0.80;;;22.20;39.30;;;;;;5029531;28;20155;-55
2021/03/20 07:22:45;;;;;;;5.25;1.10;;;22.20;39.40;;;;;;5028853;28;20473;-55
2021/03/20 07:25:32;;;;;;;6.65;0.80;;;22.20;39.60;;;;;;5023456;28;20125;-55
2021/03/20 07:28:29;;;;;;;3.45;0.85;;;22.10;39.70;;;;;;5028723;28;20089;-55
2021/03/20 07:31:07;;;;;;;4.67;1.00;;;22.10;40.00;;;;;;5029240;28;20494;-56
2021/03/20 07:33:41;;;;;;;3.55;0.82;;;22.00;40.00;;;;;;5028871;28;20082;-55
2021/03/20 07:36:33;;;;;;;3.80;0.82;;;21.90;40.10;;;;;;5029298;28;20078;-55
2021/03/20 07:39:18;;;;;;;3.72;0.73;;;21.90;40.20;;;;;;5029277;28;20106;-54
2021/03/20 07:41:58;;;;;;;9.23;1.05;;;21.90;40.10;;;;;;5028245;28;20144;-53
2021/03/20 07:44:44;;;;;;;4.28;0.82;;;21.90;39.90;;;;;;5032508;28;20093;-56
2021/03/20 07:47:16;;;;;;;4.10;0.60;;;21.90;39.80;;;;;;5033175;28;20155;-57
2021/03/20 07:49:43;;;;;;;6.15;0.82;;;21.90;39.60;;;;;;5033240;28;20097;-58
2021/03/20 07:52:28;;;;;;;4.70;0.70;;;21.90;39.70;;;;;;5033080;28;20078;-55
2021/03/20 07:55:15;;;;;;;5.85;0.80;;;21.90;39.70;;;;;;5032098;28;20104;-55
2021/03/20 07:57:54;;;;;;;;;;;21.90;39.70;;;;;;5033344;28;20623;-54
2021/03/20 08:00:23;;;;;;;8.13;0.70;;;21.90;39.90;;;;;;5032149;28;20079;-52
2021/03/20 08:02:49;;;;;;;4.45;1.23;;;21.90;40.10;;;;;;5031965;28;20098;-54
2021/03/20 08:05:21;;;;;;;5.07;0.80;;;21.70;40.40;;;;;;5032769;28;20086;-55
2021/03/20 08:07:49;;;;;;;1.20;0.70;;;21.70;40.70;;;;;;5032612;28;20606;-57
2021/03/20 08:10:23;;;;;;;3.60;1.00;;;21.70;40.80;;;;;;5032972;28;20078;-56
2021/03/20 08:13:14;;;;;;;4.05;1.27;;;21.60;41.00;;;;;;5032181;28;20131;-52
2021/03/20 08:15:56;;;;;;;2.53;0.80;;;21.50;41.20;;;;;;5030686;28;20074;-52
2021/03/20 08:18:26;;;;;;;1.73;0.85;;;21.50;41.10;;;;;;5031853;28;20164;-57
2021/03/20 08:20:58;;;;;;;1.88;0.60;;;21.50;40.80;;;;;;5029595;28;20140;-53
2021/03/20 08:24:09;;;;;;;4.18;1.67;;;21.50;40.70;;;;;;5030819;28;20129;-58
2021/03/20 08:26:54;;;;;;;3.53;1.15;;;21.60;40.00;;;;;;5031220;28;20622;-54
2021/03/20 08:29:55;;;;;;;5.72;0.90;;;21.70;39.30;;;;;;5031553;28;20081;-59
2021/03/20 08:32:43;;;;;;;12.10;1.20;;;21.80;38.60;;;;;;5031792;28;20128;-61
2021/03/20 08:35:35;;;;;;;21.92;1.58;;;21.80;38.50;;;;;;5031555;28;20074;-58
2021/03/20 08:38:02;;;;;;;2.08;0.60;;;21.80;39.30;;;;;;5030856;28;20086;-57
2021/03/20 08:40:46;;;;;;;1.95;0.50;;;21.70;39.90;;;;;;5031362;28;20098;-56
2021/03/20 08:43:46;;;;;;;1.83;0.82;;;21.70;40.20;;;;;;5030220;28;20066;-58
2021/03/20 08:46:53;;;;;;;1.70;0.68;;;21.70;40.50;;;;;;5030768;28;20085;-59
2021/03/20 08:49:34;;;;;;;4.60;0.70;;;21.60;40.80;;;;;;5017462;28;20558;-58
2021/03/20 08:52:38;;;;;;;2.53;0.63;;;21.50;41.00;;;;;;5031806;28;20330;-57
2021/03/20 08:55:38;;;;;;;2.75;0.50;;;21.40;41.20;;;;;;5030887;28;20597;-56
2021/03/20 08:58:07;;;;;;;2.60;0.73;;;21.40;41.30;;;;;;5031002;28;20077;-56
2021/03/20 09:00:43;;;;;;;4.22;0.90;;;21.40;41.40;;;;;;5031267;28;20687;-56
2021/03/20 09:03:15;;;;;;;1.63;0.60;;;21.40;41.40;;;;;;5030759;28;20090;-53
2021/03/20 09:05:48;;;;;;;7.68;0.77;;;21.40;41.30;;;;;;5030844;28;20188;-56
2021/03/20 09:08:40;;;;;;;5.88;1.10;;;21.40;41.20;;;;;;5030107;28;20104;-54
2021/03/20 09:11:36;;;;;;;5.78;1.35;;;21.50;40.90;;;;;;5030271;28;20541;-56
2021/03/20 09:14:24;;;;;;;4.00;1.27;;;21.60;40.90;;;;;;5029407;28;20070;-53
2021/03/20 09:16:56;;;;;;;5.57;0.88;;;21.70;40.90;;;;;;5030241;28;20077;-53
2021/03/20 09:19:27;;;;;;;5.45;1.15;;;21.70;40.90;;;;;;5031156;28;20074;-53
2021/03/20 09:21:58;;;;;;;16.13;1.23;;;21.60;41.00;;;;;;5033234;28;20522;-53
2021/03/20 09:24:27;;;;;;;5.45;0.98;;;21.70;40.80;;;;;;5029674;28;20113;-51
2021/03/20 09:27:00;;;;;;;3.20;0.95;;;21.80;40.50;;;;;;5030844;28;20093;-52
2021/03/20 09:29:32;;;;;;;3.88;1.08;;;21.80;40.40;;;;;;5030289;28;20169;-54
2021/03/20 09:32:07;;;;;;;10.68;1.75;;;21.90;40.40;;;;;;5030251;28;20101;-53
2021/03/20 09:34:37;;;;;;;5.55;1.17;;;21.80;40.50;;;;;;5030632;28;20078;-56
2021/03/20 09:37:19;;;;;;;7.70;1.25;;;21.80;40.70;;;;;;5030537;28;20074;-52
2021/03/20 09:39:49;;;;;;;1.83;0.70;;;21.80;40.80;;;;;;5029587;28;20117;-53
2021/03/20 09:42:27;;;;;;;7.53;1.13;;;21.80;40.90;;;;;;5028805;28;20121;-57
2021/03/20 09:44:58;;;;;;;4.05;0.70;;;21.90;40.70;;;;;;5030100;28;20078;-55
2021/03/20 09:47:49;;;;;;;7.75;0.80;;;22.00;40.50;;;;;;5030457;28;20411;-55
2021/03/20 09:50:22;;;;;;;4.40;0.90;;;22.00;40.60;;;;;;5030990;28;20082;-55
2021/03/20 09:52:50;;;;;;;6.80;1.05;;;22.00;40.70;;;;;;5030416;28;20606;-58
2021/03/20 09:55:47;;;;;;;5.75;0.70;;;21.90;40.80;;;;;;5030852;28;20078;-52
2021/03/20 09:58:19;;;;;;;4.80;0.80;;;21.90;41.10;;;;;;5029904;28;20546;-56
2021/03/20 10:00:49;;;;;;;1.23;0.70;;;21.90;41.20;;;;;;5030269;28;20135;-55
2021/03/20 10:03:48;;;;;;;1.35;0.65;;;21.90;41.30;;;;;;5030348;28;20077;-56
2021/03/20 10:06:23;;;;;;;4.75;0.80;;;21.90;41.40;;;;;;5030144;28;20073;-53
2021/03/20 10:09:08;;;;;;;5.45;0.73;;;21.90;41.50;;;;;;5030283;28;20164;-52
2021/03/20 10:11:46;;;;;;;3.35;0.68;;;21.80;41.80;;;;;;5030278;28;20439;-57
2021/03/20 10:14:31;;;;;;;4.53;0.60;;;21.80;41.90;;;;;;5028231;28;20127;-53
2021/03/20 10:17:08;;;;;;;0.63;0.50;;;21.80;42.00;;;;;;5030253;28;20427;-60
2021/03/20 10:19:53;;;;;;;1.67;1.00;;;21.70;42.00;;;;;;5030242;28;20485;-58
2021/03/20 10:22:32;;;;;;;1.75;0.93;;;21.70;42.30;;;;;;5029835;28;20081;-54
2021/03/20 10:24:59;;;;;;;3.88;0.80;;;21.60;42.40;;;;;;5028888;28;20195;-61
2021/03/20 10:27:39;;;;;;;1.85;0.70;;;21.60;42.50;;;;;;5029863;28;20110;-54
2021/03/20 10:30:19;;;;;;;4.07;0.75;;;21.50;42.70;;;;;;5029099;28;20070;-51
2021/03/20 10:33:06;;;;;;;4.25;0.93;;;21.50;42.90;;;;;;5028935;28;20065;-54
2021/03/20 10:35:38;;;;;;;4.47;0.77;;;21.40;43.10;;;;;;5028702;28;20081;-53
2021/03/20 10:38:18;;;;;;;2.85;0.80;;;21.40;43.20;;;;;;5029971;28;20531;-52
2021/03/20 10:40:57;;;;;;;4.50;0.70;;;21.40;43.00;;;;;;5030029;28;20101;-55
2021/03/20 10:43:24;;;;;;;4.18;0.60;;;21.40;43.00;;;;;;5029020;28;20419;-54
2021/03/20 10:45:51;;;;;;;3.28;0.70;;;21.40;43.10;;;;;;5029726;28;20140;-55
2021/03/20 10:48:26;;;;;;;3.92;0.90;;;21.30;43.20;;;;;;5029967;28;20538;-55
2021/03/20 10:51:04;;;;;;;4.10;0.80;;;21.30;43.50;;;;;;5029884;28;20077;-56
2021/03/20 10:53:43;;;;;;;10.25;0.95;;;21.20;44.00;;;;;;5030498;28;20097;-57
2021/03/20 10:56:30;;;;;;;7.25;0.90;;;21.10;44.30;;;;;;5029728;28;20132;-57
2021/03/20 10:58:59;;;;;;;10.57;1.25;;;21.10;44.30;;;;;;5030482;28;20429;-54
2021/03/20 11:01:34;;;;;;;6.15;1.08;;;21.10;44.40;;;;;;5029356;28;20133;-59
2021/03/20 11:04:02;;;;;;;10.15;1.20;;;21.10;44.50;;;;;;5028756;28;20124;-55
2021/03/20 11:06:29;;;;;;;9.60;0.88;;;21.10;44.60;;;;;;5029221;28;20089;-54
2021/03/20 11:09:19;;;;;;;3.08;0.80;;;21.10;44.70;;;;;;5029016;28;20758;-55
2021/03/20 11:11:46;;;;;;;3.72;1.00;;;21.10;44.80;;;;;;5029806;28;20078;-53
2021/03/20 11:14:19;;;;;;;1.70;0.43;;;21.20;44.90;;;;;;5029734;28;20153;-51
2021/03/20 11:16:45;;;;;;;1.95;0.50;;;21.20;45.10;;;;;;5029882;28;20082;-53
2021/03/20 11:19:11;;;;;;;4.60;0.50;;;21.10;45.40;;;;;;5032072;28;20295;-58
2021/03/20 11:21:42;;;;;;;4.15;0.65;;;21.00;45.10;;;;;;5033397;28;20152;-55
2021/03/20 11:24:22;;;;;;;4.65;1.20;;;21.00;45.80;;;;;;5033678;28;20553;-52
2021/03/20 11:26:50;;;;;;;7.75;0.70;;;21.00;45.90;;;;;;5033933;28;20105;-52
2021/03/20 11:29:23;;;;;;;2.75;0.68;;;21.00;46.00;;;;;;5033403;28;20070;-54
2021/03/20 11:32:03;;;;;;;6.43;0.60;;;21.00;46.20;;;;;;5031809;28;20518;-56
2021/03/20 11:34:35;;;;;;;2.50;0.60;;;20.90;46.40;;;;;;5033082;28;20427;-55
2021/03/20 11:37:03;;;;;;;2.90;0.70;;;20.80;46.60;;;;;;5033103;28;20543;-53
2021/03/20 11:39:30;;;;;;;4.78;0.60;;;20.80;46.60;;;;;;5033234;28;20077;-55
2021/03/20 11:42:07;;;;;;;1.92;0.43;;;20.90;46.40;;;;;;5033807;28;20082;-56
2021/03/20 11:44:43;;;;;;;2.78;0.38;;;20.90;46.30;;;;;;5033261;28;20112;-55
2021/03/20 11:47:27;;;;;;;16.83;1.10;;;20.90;46.40;;;;;;5033438;28;20530;-53
2021/03/20 11:49:57;;;;;;;3.13;0.55;;;20.90;46.40;;;;;;5032261;28;20092;-53
2021/03/20 11:52:44;;;;;;;11.13;0.80;;;20.90;46.40;;;;;;5032852;28;20097;-54
2021/03/20 11:55:29;;;;;;;3.40;0.40;;;20.90;46.30;;;;;;5032937;28;20077;-53
2021/03/20 11:58:06;;;;;;;3.53;0.47;;;20.90;46.20;;;;;;5032370;28;20078;-56
2021/03/20 12:00:34;;;;;;;;;;;20.90;45.80;;;;;;5032952;28;20235;-54
2021/03/20 12:03:03;;;;;;;0.55;0.50;;;21.00;45.50;;;;;;5032768;28;19964;-55
2021/03/20 12:05:36;;;;;;;2.25;0.50;;;21.00;45.30;;;;;;5032824;28;20078;-56
2021/03/20 12:08:24;;;;;;;0.60;0.60;;;21.00;45.30;;;;;;5032246;28;20147;-54
2021/03/20 12:10:58;;;;;;;1.10;0.40;;;21.00;45.20;;;;;;5031356;28;20511;-56
2021/03/20 12:13:57;;;;;;;5.78;0.60;;;20.90;45.40;;;;;;5029560;28;20162;-57
2021/03/20 12:16:33;;;;;;;1.17;0.50;;;20.90;45.30;;;;;;5029944;28;20086;-57
2021/03/20 12:19:06;;;;;;;1.00;0.60;;;20.90;45.40;;;;;;5032397;28;20144;-56
2021/03/20 12:21:49;;;;;;;1.27;0.63;;;20.80;45.60;;;;;;5031709;28;20098;-56
2021/03/20 12:24:20;;;;;;;1.00;0.70;;;20.80;45.80;;;;;;5031949;28;20106;-56
2021/03/20 12:26:47;;;;;;;0.68;0.60;;;20.70;46.00;;;;;;5031862;28;20105;-52
2021/03/20 12:29:27;;;;;;;1.90;0.40;;;20.70;46.00;;;;;;5031443;28;20082;-54
2021/03/20 12:31:55;;;;;;;2.65;0.50;;;20.70;46.30;;;;;;5032396;28;20101;-52
2021/03/20 12:34:30;;;;;;;0.63;0.47;;;20.60;46.30;;;;;;5031978;28;20081;-55
2021/03/20 12:37:16;;;;;;;0.35;0.35;;;20.50;46.40;;;;;;5031444;28;20073;-52
2021/03/20 12:39:43;;;;;;;1.38;0.47;;;20.50;46.60;;;;;;5031678;28;20081;-52
2021/03/20 12:42:09;;;;;;;0.88;0.68;;;20.50;46.50;;;;;;5032148;28;20134;-58
2021/03/20 12:44:47;;;;;;;0.32;0.30;;;20.50;46.60;;;;;;5032171;28;20074;-52
2021/03/20 12:47:18;;;;;;;4.07;0.75;;;20.40;46.70;;;;;;5032280;28;20518;-55
2021/03/20 12:49:45;;;;;;;1.83;0.80;;;20.40;47.40;;;;;;5032241;28;20090;-56
2021/03/20 12:52:19;;;;;;;3.85;0.40;;;20.30;47.00;;;;;;5030994;28;20426;-55
2021/03/20 12:54:49;;;;;;;2.92;0.60;;;20.30;47.00;;;;;;5031732;28;20179;-54
2021/03/20 12:57:28;;;;;;;2.13;0.52;;;20.20;47.10;;;;;;5031291;28;20078;-54
2021/03/20 12:59:55;;;;;;;1.40;0.60;;;20.30;47.20;;;;;;5030469;28;20160;-57
2021/03/20 13:02:23;;;;;;;2.05;0.50;;;20.20;47.00;;;;;;5031907;28;20443;-57
2021/03/20 13:04:50;;;;;;;2.30;0.60;;;20.20;47.20;;;;;;5031906;28;20082;-57
2021/03/20 13:07:18;;;;;;;0.93;0.70;;;20.20;47.30;;;;;;5031414;28;20104;-57
2021/03/20 13:09:48;;;;;;;2.08;0.70;;;20.10;47.20;;;;;;5031008;28;20066;-55
2021/03/20 13:12:15;;;;;;;2.58;0.70;;;20.10;47.40;;;;;;5032243;28;20539;-56
2021/03/20 13:14:42;;;;;;;2.15;0.90;;;20.10;47.30;;;;;;5031687;28;20513;-52
2021/03/20 13:17:10;;;;;;;3.58;0.60;;;20.10;47.40;;;;;;5030769;28;20101;-60
2021/03/20 13:19:38;;;;;;;1.83;0.65;;;20.10;47.00;;;;;;5031674;28;20077;-55
2021/03/20 13:22:05;;;;;;;4.00;0.52;;;20.10;47.00;;;;;;5031153;28;20074;-54
2021/03/20 13:24:33;;;;;;;2.92;0.63;;;20.10;47.00;;;;;;5030810;28;20114;-57
2021/03/20 13:27:01;;;;;;;1.02;0.60;;;20.10;46.80;;;;;;5030571;28;20078;-56
2021/03/20 13:29:28;;;;;;;1.27;0.70;;;20.10;46.90;;;;;;5031257;28;20071;-55
2021/03/20 13:31:55;;;;;;;0.85;0.73;;;20.00;46.80;;;;;;5031045;28;20078;-53